Time;durP1;ratioP1;P1;durP2;ratioP2;P2;SDS_P1;SDS_P2;PMS_P1;PMS_P2;Temp;Humidity;BMP_temperature;BMP_pressure;BME280_temperature;BME280_humidity;BME280_pressure;Samples;Min_cycle;Max_cycle;Signal;HPM_P1;HPM_P2
2022/06/22 00:00:39;;;;;;;9.15;6.47;;;;;;;;;;4974320;28;20535;-57
2022/06/22 00:03:07;;;;;;;12.57;5.85;;;;;;;;;;4974281;28;20552;-55
2022/06/22 00:05:43;;;;;;;13.80;8.32;;;;;;;;;;4974196;28;20432;-55
2022/06/22 00:08:13;;;;;;;11.73;7.35;;;;;;;;;;4974601;28;20026;-54
2022/06/22 00:10:53;;;;;;;17.45;8.38;;;;;;;;;;4973534;28;20068;-57
2022/06/22 00:13:24;;;;;;;13.35;6.95;;;;;;;;;;4972723;28;20035;-56
2022/06/22 00:15:52;;;;;;;17.80;8.20;;;;;;;;;;4971340;28;20483;-55
2022/06/22 00:18:21;;;;;;;12.82;8.20;;;;;;;;;;4971753;28;20031;-53
2022/06/22 00:20:52;;;;;;;14.15;8.70;;;;;;;;;;4973827;28;20479;-53
2022/06/22 00:23:40;;;;;;;14.93;9.18;;;;;;;;;;4973722;28;20383;-56
2022/06/22 00:26:18;;;;;;;13.18;9.20;;;;;;;;;;4974818;28;20464;-56
2022/06/22 00:28:53;;;;;;;13.57;9.43;;;;;;;;;;4973336;28;20431;-55
2022/06/22 00:31:29;;;;;;;19.40;9.43;;;;;;;;;;4973950;28;20039;-53
2022/06/22 00:34:04;;;;;;;32.22;10.57;;;;;;;;;;4972892;28;20023;-55
2022/06/22 00:36:50;;;;;;;14.80;9.32;;;;;;;;;;4974284;28;20154;-53
2022/06/22 00:39:25;;;;;;;14.52;9.45;;;;;;;;;;4988352;28;20070;-56
2022/06/22 00:41:51;;;;;;;14.77;9.82;;;;;;;;;;4973546;28;20062;-54
2022/06/22 00:44:17;;;;;;;21.08;9.50;;;;;;;;;;4973048;28;20023;-52
2022/06/22 00:46:58;;;;;;;11.35;9.27;;;;;;;;;;4973598;28;20037;-54
2022/06/22 00:49:24;;;;;;;21.25;9.50;;;;;;;;;;4973532;28;20054;-57
2022/06/22 00:51:51;;;;;;;18.08;9.75;;;;;;;;;;4972865;28;20110;-56
2022/06/22 00:54:23;;;;;;;15.10;10.40;;;;;;;;;;4973864;28;20387;-53
2022/06/22 00:56:57;;;;;;;14.10;10.25;;;;;;;;;;4973829;28;20023;-54
2022/06/22 00:59:34;;;;;;;15.82;9.57;;;;;;;;;;4973442;28;20101;-57
2022/06/22 01:02:13;;;;;;;19.30;10.63;;;;;;;;;;4972387;28;20034;-56
2022/06/22 01:04:42;;;;;;;16.20;10.85;;;;;;;;;;4972592;28;20550;-54
2022/06/22 01:07:08;;;;;;;19.40;10.70;;;;;;;;;;4973441;28;20065;-54
2022/06/22 01:10:04;;;;;;;16.65;10.15;;;;;;;;;;4973661;28;20435;-56
2022/06/22 01:12:50;;;;;;;20.48;10.73;;;;;;;;;;4965021;28;20034;-57
2022/06/22 01:15:22;;;;;;;14.50;9.77;;;;;;;;;;4972660;28;20022;-54
2022/06/22 01:17:48;;;;;;;16.08;10.48;;;;;;;;;;4972132;28;20373;-53
2022/06/22 01:20:21;;;;;;;20.17;10.48;;;;;;;;;;4972696;28;20038;-54
2022/06/22 01:23:03;;;;;;;16.33;9.02;;;;;;;;;;4973056;28;20062;-53
2022/06/22 01:25:48;;;;;;;13.70;8.98;;;;;;;;;;4972774;28;20035;-54
2022/06/22 01:28:14;;;;;;;16.00;8.95;;;;;;;;;;4973001;28;20022;-57
2022/06/22 01:30:41;;;;;;;14.02;9.50;;;;;;;;;;4972457;28;20090;-55
2022/06/22 01:33:08;;;;;;;13.60;8.63;;;;;;;;;;4972718;28;20033;-55
2022/06/22 01:35:37;;;;;;;17.83;9.23;;;;;;;;;;4972551;28;20518;-56
2022/06/22 01:38:24;;;;;;;14.98;7.57;;;;;;;;;;4970992;28;20023;-57
2022/06/22 01:41:05;;;;;;;15.07;7.40;;;;;;;;;;4972675;28;20119;-54
2022/06/22 01:43:40;;;;;;;15.23;8.40;;;;;;;;;;4972357;28;20054;-54
2022/06/22 01:46:12;;;;;;;15.27;7.63;;;;;;;;;;4959741;28;20457;-56
2022/06/22 01:48:43;;;;;;;15.15;7.82;;;;;;;;;;4972461;28;20022;-53
2022/06/22 01:51:21;;;;;;;17.75;9.05;;;;;;;;;;4972466;28;20412;-55
2022/06/22 01:53:53;;;;;;;15.25;8.77;;;;;;;;;;4972221;28;20073;-53
2022/06/22 01:56:51;;;;;;;15.80;10.95;;;;;;;;;;4971616;28;20573;-55
2022/06/22 01:59:27;;;;;;;17.80;10.48;;;;;;;;;;4950010;28;20110;-56
2022/06/22 02:01:59;;;;;;;18.58;10.32;;;;;;;;;;4972083;28;20434;-54
2022/06/22 02:04:48;;;;;;;13.38;10.15;;;;;;;;;;4972603;28;20023;-53
2022/06/22 02:10:10;;;;;;;14.95;11.00;;;;;;;;;;4971691;28;20037;-54
2022/06/22 02:12:40;;;;;;;16.73;11.15;;;;;;;;;;4972893;28;20372;-54
2022/06/22 02:15:11;;;;;;;14.65;12.65;;;;;;;;;;4972130;28;20110;-54
2022/06/22 02:17:39;;;;;;;13.05;11.18;;;;;;;;;;4972062;28;20041;-54
2022/06/22 02:20:20;;;;;;;17.88;9.75;;;;;;;;;;5013372;23;20073;-62
2022/06/22 02:22:47;;;;;;;13.75;10.65;;;;;;;;;;5006881;28;20124;-62
2022/06/22 02:25:13;;;;;;;18.63;12.50;;;;;;;;;;4992173;28;20499;-62
2022/06/22 02:27:39;;;;;;;13.45;11.07;;;;;;;;;;4993640;28;20029;-62
2022/06/22 02:30:05;;;;;;;17.63;11.43;;;;;;;;;;4991837;28;20105;-62
2022/06/22 02:32:34;;;;;;;15.68;11.63;;;;;;;;;;4991017;28;20057;-62
2022/06/22 02:35:00;;;;;;;14.98;10.85;;;;;;;;;;4991691;28;20023;-62
2022/06/22 02:37:32;;;;;;;17.50;11.10;;;;;;;;;;4991578;28;20507;-62
2022/06/22 02:40:01;;;;;;;12.82;11.43;;;;;;;;;;4991715;28;20035;-62
2022/06/22 02:45:13;;;;;;;18.73;12.18;;;;;;;;;;4991979;28;20074;-62
2022/06/22 02:47:45;;;;;;;15.32;13.00;;;;;;;;;;4991213;28;20146;-62
2022/06/22 02:50:17;;;;;;;17.27;14.05;;;;;;;;;;4990677;28;20018;-62
2022/06/22 02:53:06;;;;;;;25.25;13.00;;;;;;;;;;4981694;28;20101;-62
2022/06/22 02:55:35;;;;;;;17.40;13.73;;;;;;;;;;4991753;28;20054;-62
2022/06/22 02:58:02;;;;;;;15.40;12.52;;;;;;;;;;4991515;28;20080;-62
2022/06/22 03:00:33;;;;;;;18.58;12.85;;;;;;;;;;4991349;28;20034;-62
2022/06/22 03:03:04;;;;;;;16.40;14.13;;;;;;;;;;4991235;28;20034;-61
2022/06/22 03:05:30;;;;;;;20.60;13.98;;;;;;;;;;4991748;28;20030;-62
2022/06/22 03:07:59;;;;;;;18.38;13.60;;;;;;;;;;4994495;28;20034;-62
2022/06/22 03:10:27;;;;;;;23.80;13.77;;;;;;;;;;4994485;28;20038;-62
2022/06/22 03:12:56;;;;;;;16.00;14.18;;;;;;;;;;4993336;28;20030;-62
2022/06/22 03:15:23;;;;;;;15.35;13.77;;;;;;;;;;4985687;28;20074;-62
2022/06/22 03:17:49;;;;;;;17.08;14.07;;;;;;;;;;4975961;28;20034;-62
2022/06/22 03:20:18;;;;;;;18.20;15.32;;;;;;;;;;4988923;28;20039;-62
2022/06/22 03:22:46;;;;;;;19.27;14.70;;;;;;;;;;4988656;28;20403;-62
2022/06/22 03:25:31;;;;;;;17.75;15.10;;;;;;;;;;4993197;28;20072;-62
2022/06/22 03:28:06;;;;;;;20.42;13.95;;;;;;;;;;4994993;28;20022;-62
2022/06/22 03:30:37;;;;;;;19.20;15.68;;;;;;;;;;4995221;28;20550;-62
2022/06/22 03:33:09;;;;;;;21.80;16.88;;;;;;;;;;4983466;28;20022;-62
2022/06/22 03:35:41;;;;;;;22.00;15.40;;;;;;;;;;4993957;28;20064;-61
2022/06/22 03:38:10;;;;;;;17.15;15.50;;;;;;;;;;4986396;28;20023;-62
2022/06/22 03:40:48;;;;;;;18.42;16.55;;;;;;;;;;4990080;28;20030;-62
2022/06/22 03:43:18;;;;;;;19.40;14.75;;;;;;;;;;4994745;28;20026;-62
2022/06/22 03:45:47;;;;;;;19.63;14.60;;;;;;;;;;4995067;28;20026;-61
2022/06/22 03:48:16;;;;;;;20.63;16.20;;;;;;;;;;4994346;28;20026;-61
2022/06/22 03:50:46;;;;;;;19.65;17.15;;;;;;;;;;4993393;28;20030;-62
2022/06/22 03:53:21;;;;;;;25.00;16.55;;;;;;;;;;4993245;28;20094;-62
2022/06/22 03:55:49;;;;;;;32.22;16.25;;;;;;;;;;4994679;28;20030;-62
2022/06/22 03:58:15;;;;;;;16.42;14.50;;;;;;;;;;4993296;28;20595;-62
2022/06/22 04:00:41;;;;;;;;;;;;;;;;;;4994329;28;20026;-62
2022/06/22 04:03:08;;;;;;;17.55;15.52;;;;;;;;;;4994285;28;19906;-62
2022/06/22 04:05:34;;;;;;;;;;;;;;;;;;4991484;28;20030;-62
2022/06/22 04:08:00;;;;;;;19.65;16.10;;;;;;;;;;4992692;28;20259;-62
2022/06/22 04:10:32;;;;;;;18.02;16.05;;;;;;;;;;4992965;28;20030;-62
2022/06/22 04:12:59;;;;;;;28.30;16.45;;;;;;;;;;4994486;28;20101;-62
2022/06/22 04:15:25;;;;;;;22.20;15.82;;;;;;;;;;4994415;28;20053;-62
2022/06/22 04:17:53;;;;;;;20.27;17.42;;;;;;;;;;4992501;28;20026;-62
2022/06/22 04:20:22;;;;;;;22.13;17.40;;;;;;;;;;4993662;28;20450;-62
2022/06/22 04:22:50;;;;;;;20.88;17.30;;;;;;;;;;4993384;28;20022;-62
2022/06/22 04:25:19;;;;;;;33.22;18.30;;;;;;;;;;4994252;28;20029;-62
2022/06/22 04:27:48;;;;;;;22.58;16.63;;;;;;;;;;4993306;28;20022;-58
2022/06/22 04:30:21;;;;;;;26.02;16.85;;;;;;;;;;4989721;28;20023;-56
2022/06/22 04:33:10;;;;;;;17.50;15.60;;;;;;;;;;4993571;28;20129;-53
2022/06/22 04:35:39;;;;;;;16.13;13.93;;;;;;;;;;4991050;28;20038;-59
2022/06/22 04:38:14;;;;;;;20.60;14.68;;;;;;;;;;4993993;28;20513;-58
2022/06/22 04:40:59;;;;;;;17.92;15.23;;;;;;;;;;4994084;28;20027;-57
2022/06/22 04:43:25;;;;;;;20.70;14.55;;;;;;;;;;4993959;28;20033;-57
2022/06/22 04:45:52;;;;;;;16.02;14.50;;;;;;;;;;4993889;28;20026;-54
2022/06/22 04:48:18;;;;;;;17.27;15.57;;;;;;;;;;4993629;28;20034;-54
2022/06/22 04:50:44;;;;;;;20.92;16.67;;;;;;;;;;4993801;28;20030;-59
2022/06/22 04:53:19;;;;;;;20.63;15.30;;;;;;;;;;4993615;28;20422;-52
2022/06/22 04:55:46;;;;;;;19.95;15.68;;;;;;;;;;4992436;28;20479;-53
2022/06/22 04:58:26;;;;;;;17.75;15.95;;;;;;;;;;4993357;28;20050;-56
2022/06/22 05:00:52;;;;;;;22.88;15.98;;;;;;;;;;4987620;28;20090;-55
2022/06/22 05:03:18;;;;;;;17.95;16.15;;;;;;;;;;4974456;28;20031;-57
2022/06/22 05:05:44;;;;;;;25.15;15.35;;;;;;;;;;4988387;28;20057;-54
2022/06/22 05:08:22;;;;;;;21.52;16.15;;;;;;;;;;4993294;28;20507;-54
2022/06/22 05:11:02;;;;;;;26.83;17.05;;;;;;;;;;4991651;28;20026;-53
2022/06/22 05:13:30;;;;;;;31.17;17.38;;;;;;;;;;4992802;28;20023;-51
2022/06/22 05:15:57;;;;;;;19.40;16.50;;;;;;;;;;4993031;28;20025;-50
2022/06/22 05:18:34;;;;;;;21.55;16.65;;;;;;;;;;4992418;28;20034;-52
2022/06/22 05:21:13;;;;;;;23.87;18.03;;;;;;;;;;4989494;28;20038;-49
2022/06/22 05:23:40;;;;;;;22.85;16.77;;;;;;;;;;4991507;28;20634;-53
2022/06/22 05:26:08;;;;;;;18.75;16.75;;;;;;;;;;4992773;28;20030;-58
2022/06/22 05:28:34;;;;;;;21.85;17.63;;;;;;;;;;4992591;28;20026;-58
2022/06/22 05:31:05;;;;;;;19.75;17.45;;;;;;;;;;4992466;28;20522;-58
2022/06/22 05:33:33;;;;;;;20.77;18.75;;;;;;;;;;4992190;28;20098;-58
2022/06/22 05:36:05;;;;;;;19.38;16.90;;;;;;;;;;4992099;28;20030;-58
2022/06/22 05:38:33;;;;;;;20.30;17.00;;;;;;;;;;4992391;28;20459;-58
2022/06/22 05:41:04;;;;;;;18.88;15.88;;;;;;;;;;4992255;28;20121;-59
2022/06/22 05:43:32;;;;;;;19.20;16.15;;;;;;;;;;4992642;28;20097;-59
2022/06/22 05:46:02;;;;;;;18.20;14.80;;;;;;;;;;4992537;28;20031;-59
2022/06/22 05:48:29;;;;;;;23.17;14.93;;;;;;;;;;4992309;28;20036;-59
2022/06/22 05:51:07;;;;;;;18.58;14.80;;;;;;;;;;4992336;28;20084;-57
2022/06/22 05:53:42;;;;;;;17.23;14.60;;;;;;;;;;4992129;28;20027;-59
2022/06/22 05:56:08;;;;;;;17.33;15.02;;;;;;;;;;4992217;28;20498;-58
2022/06/22 05:59:06;;;;;;;22.13;15.82;;;;;;;;;;4992175;28;20022;-58
2022/06/22 06:01:51;;;;;;;18.48;14.68;;;;;;;;;;4983340;28;20415;-58
2022/06/22 06:04:26;;;;;;;18.65;16.73;;;;;;;;;;4992276;28;20073;-59
2022/06/22 06:06:53;;;;;;;23.15;15.70;;;;;;;;;;4991156;28;20022;-59
2022/06/22 06:09:24;;;;;;;22.05;15.95;;;;;;;;;;4990894;28;20053;-58
2022/06/22 06:11:55;;;;;;;17.33;15.65;;;;;;;;;;4991899;28;20026;-59
2022/06/22 06:14:30;;;;;;;22.15;16.25;;;;;;;;;;4991806;28;20030;-58
2022/06/22 06:16:59;;;;;;;20.65;17.65;;;;;;;;;;4991845;28;20050;-58
2022/06/22 06:19:29;;;;;;;18.10;16.30;;;;;;;;;;4991611;28;20461;-56
2022/06/22 06:21:56;;;;;;;19.33;17.23;;;;;;;;;;4992205;28;20030;-55
2022/06/22 06:24:28;;;;;;;18.08;15.95;;;;;;;;;;4990580;28;20065;-55
2022/06/22 06:30:06;;;;;;;20.25;16.77;;;;;;;;;;4992170;28;20037;-50
2022/06/22 06:32:36;;;;;;;20.38;16.50;;;;;;;;;;4992379;28;20039;-55
2022/06/22 06:35:05;;;;;;;21.15;17.63;;;;;;;;;;4991819;28;20034;-54
2022/06/22 06:37:31;;;;;;;19.83;16.67;;;;;;;;;;4991284;28;20068;-55
2022/06/22 06:39:58;;;;;;;22.25;17.05;;;;;;;;;;4991781;28;20050;-54
2022/06/22 06:42:42;;;;;;;18.73;15.18;;;;;;;;;;4993750;28;20035;-54
2022/06/22 06:45:15;;;;;;;20.17;17.10;;;;;;;;;;4995733;28;20076;-51
2022/06/22 06:47:42;;;;;;;20.20;17.85;;;;;;;;;;4995496;28;20026;-51
2022/06/22 06:50:17;;;;;;;18.48;16.33;;;;;;;;;;4995515;28;20027;-53
2022/06/22 06:52:56;;;;;;;18.48;16.58;;;;;;;;;;4995494;28;20058;-49
2022/06/22 06:55:26;;;;;;;18.35;15.52;;;;;;;;;;4995918;28;20368;-49
2022/06/22 06:57:59;;;;;;;20.35;16.85;;;;;;;;;;4995325;28;20038;-54
2022/06/22 07:00:26;;;;;;;28.15;17.33;;;;;;;;;;4995296;28;20731;-52
2022/06/22 07:02:52;;;;;;;19.83;17.08;;;;;;;;;;4995241;28;20030;-51
2022/06/22 07:05:21;;;;;;;76.47;20.65;;;;;;;;;;4995564;28;20022;-55
2022/06/22 07:07:47;;;;;;;37.17;17.35;;;;;;;;;;4995141;28;20036;-55
2022/06/22 07:10:39;;;;;;;27.70;20.17;;;;;;;;;;4995429;28;20102;-56
2022/06/22 07:13:18;;;;;;;20.88;16.65;;;;;;;;;;4993860;28;20061;-56
2022/06/22 07:15:46;;;;;;;23.48;17.48;;;;;;;;;;4994577;28;20031;-55
2022/06/22 07:18:16;;;;;;;22.00;17.65;;;;;;;;;;4994759;28;20030;-56
2022/06/22 07:20:46;;;;;;;22.45;18.33;;;;;;;;;;4995170;28;20088;-55
2022/06/22 07:23:35;;;;;;;26.77;17.75;;;;;;;;;;4994659;28;20033;-55
2022/06/22 07:26:14;;;;;;;23.00;17.95;;;;;;;;;;4994882;28;20022;-56
2022/06/22 07:28:49;;;;;;;22.58;17.98;;;;;;;;;;4994951;28;20049;-56
2022/06/22 07:31:26;;;;;;;18.38;16.42;;;;;;;;;;4994916;28;20387;-55
2022/06/22 07:33:55;;;;;;;20.77;18.57;;;;;;;;;;4994786;28;21176;-56
2022/06/22 07:36:33;;;;;;;23.67;18.27;;;;;;;;;;4994981;28;20870;-55
2022/06/22 07:39:02;;;;;;;23.60;18.00;;;;;;;;;;4994614;28;20462;-55
2022/06/22 07:41:29;;;;;;;27.52;19.27;;;;;;;;;;4994280;28;20062;-58
2022/06/22 07:44:13;;;;;;;26.42;17.13;;;;;;;;;;4994767;28;20049;-57
2022/06/22 07:46:45;;;;;;;20.95;18.80;;;;;;;;;;4994520;28;20093;-54
2022/06/22 07:49:32;;;;;;;24.00;19.45;;;;;;;;;;4993083;28;20034;-61
2022/06/22 07:51:59;;;;;;;20.80;18.60;;;;;;;;;;4994365;28;20097;-61
2022/06/22 07:54:32;;;;;;;20.08;18.17;;;;;;;;;;4993304;28;20482;-61
2022/06/22 07:57:12;;;;;;;21.45;16.15;;;;;;;;;;4993070;28;20561;-61
2022/06/22 07:59:48;;;;;;;23.27;16.77;;;;;;;;;;4994340;28;20022;-61
2022/06/22 08:02:16;;;;;;;29.17;17.60;;;;;;;;;;4994399;28;20027;-61
2022/06/22 08:05:04;;;;;;;20.95;16.50;;;;;;;;;;4994510;28;20101;-61
2022/06/22 08:07:51;;;;;;;22.60;17.70;;;;;;;;;;4994356;28;20126;-61
2022/06/22 08:10:23;;;;;;;31.77;17.13;;;;;;;;;;4994150;28;20053;-61
2022/06/22 08:12:52;;;;;;;21.38;17.38;;;;;;;;;;4994192;28;20034;-59
2022/06/22 08:15:20;;;;;;;21.70;16.85;;;;;;;;;;4994067;28;20109;-61
2022/06/22 08:17:52;;;;;;;20.75;16.65;;;;;;;;;;4993861;28;20026;-61
2022/06/22 08:20:20;;;;;;;27.98;18.23;;;;;;;;;;5026854;23;20428;-57
2022/06/22 08:22:46;;;;;;;27.02;17.42;;;;;;;;;;5012862;28;20026;-55
2022/06/22 08:25:12;;;;;;;;;;;;;;;;;;5012676;28;20029;-57
2022/06/22 08:27:39;;;;;;;19.35;16.88;;;;;;;;;;5013432;28;19905;-56
2022/06/22 08:30:06;;;;;;;23.13;17.55;;;;;;;;;;5012260;28;20445;-54
2022/06/22 08:32:34;;;;;;;22.23;17.27;;;;;;;;;;5013643;28;20028;-57
2022/06/22 08:35:09;;;;;;;20.42;16.77;;;;;;;;;;5013612;28;20034;-58
2022/06/22 08:37:38;;;;;;;20.10;17.25;;;;;;;;;;5013430;28;20030;-54
2022/06/22 08:40:23;;;;;;;18.40;16.48;;;;;;;;;;5013484;28;20105;-57
2022/06/22 08:42:59;;;;;;;24.05;17.88;;;;;;;;;;5013328;28;20026;-57
2022/06/22 08:45:38;;;;;;;25.58;17.35;;;;;;;;;;5013475;28;20386;-56
2022/06/22 08:48:04;;;;;;;19.50;17.58;;;;;;;;;;5013254;28;20026;-55
2022/06/22 08:50:39;;;;;;;22.77;17.85;;;;;;;;;;5013300;28;20058;-57
2022/06/22 08:53:24;;;;;;;20.88;18.33;;;;;;;;;;5013372;28;20022;-56
2022/06/22 08:55:56;;;;;;;20.45;17.70;;;;;;;;;;5013365;28;20036;-55
2022/06/22 08:58:23;;;;;;;21.65;18.38;;;;;;;;;;5012986;28;20026;-56
2022/06/22 09:01:00;;;;;;;23.27;18.40;;;;;;;;;;5012955;28;20037;-58
2022/06/22 09:03:32;;;;;;;20.60;18.48;;;;;;;;;;5013070;28;20390;-55
2022/06/22 09:06:01;;;;;;;20.02;17.88;;;;;;;;;;5012703;28;20113;-55
2022/06/22 09:08:39;;;;;;;20.42;18.33;;;;;;;;;;5011684;28;20033;-56
2022/06/22 09:11:20;;;;;;;19.48;17.02;;;;;;;;;;5012841;28;20521;-54
2022/06/22 09:13:58;;;;;;;28.58;18.85;;;;;;;;;;5012908;28;20032;-57
2022/06/22 09:16:24;;;;;;;25.35;18.58;;;;;;;;;;5012854;28;20064;-57
2022/06/22 09:18:53;;;;;;;25.45;19.25;;;;;;;;;;5012773;28;20026;-56
2022/06/22 09:21:25;;;;;;;21.95;16.85;;;;;;;;;;5012596;28;20038;-57
2022/06/22 09:23:51;;;;;;;22.02;16.65;;;;;;;;;;5012804;28;20412;-55
2022/06/22 09:26:23;;;;;;;19.65;17.73;;;;;;;;;;5012730;28;20053;-57
2022/06/22 09:29:00;;;;;;;22.80;16.70;;;;;;;;;;5011164;28;20391;-58
2022/06/22 09:31:49;;;;;;;24.00;16.80;;;;;;;;;;5011376;28;20460;-55
2022/06/22 09:34:18;;;;;;;25.15;17.13;;;;;;;;;;5011269;28;20026;-55
2022/06/22 09:37:07;;;;;;;25.08;17.00;;;;;;;;;;5012413;28;20049;-57
2022/06/22 09:39:33;;;;;;;20.88;16.27;;;;;;;;;;5007004;28;20038;-55
2022/06/22 09:42:08;;;;;;;199.20;43.72;;;;;;;;;;5012717;28;20374;-55
2022/06/22 09:44:46;;;;;;;19.90;15.07;;;;;;;;;;5012245;28;20387;-57
2022/06/22 09:47:18;;;;;;;55.20;18.67;;;;;;;;;;5012055;28;20026;-58
2022/06/22 09:49:47;;;;;;;18.17;14.90;;;;;;;;;;5010991;28;20454;-57
2022/06/22 09:52:26;;;;;;;20.05;14.20;;;;;;;;;;5012308;28;20104;-54
2022/06/22 09:57:55;;;;;;;16.05;13.68;;;;;;;;;;5012178;28;20141;-57
2022/06/22 10:00:33;;;;;;;15.73;14.00;;;;;;;;;;5012059;28;20045;-58
2022/06/22 10:03:18;;;;;;;14.55;10.75;;;;;;;;;;5012223;28;20353;-56
2022/06/22 10:06:03;;;;;;;18.17;10.50;;;;;;;;;;5012101;28;20034;-55
2022/06/22 10:08:42;;;;;;;12.73;9.88;;;;;;;;;;5010596;28;20487;-57
2022/06/22 10:11:12;;;;;;;16.05;10.85;;;;;;;;;;5012001;28;20026;-58
2022/06/22 10:13:38;;;;;;;14.75;11.02;;;;;;;;;;5011995;28;20022;-57
2022/06/22 10:16:07;;;;;;;14.43;12.35;;;;;;;;;;5011134;28;20033;-57
2022/06/22 10:18:36;;;;;;;17.85;13.85;;;;;;;;;;5010355;28;20030;-53
2022/06/22 10:21:02;;;;;;;12.88;11.10;;;;;;;;;;5005393;28;20454;-57
2022/06/22 10:23:40;;;;;;;11.60;10.27;;;;;;;;;;4992273;28;20530;-58
2022/06/22 10:26:06;;;;;;;15.93;11.30;;;;;;;;;;5008026;28;20050;-58
2022/06/22 10:28:51;;;;;;;18.38;10.20;;;;;;;;;;5010014;28;20049;-58
2022/06/22 10:31:17;;;;;;;12.85;9.15;;;;;;;;;;5009064;28;20033;-57
2022/06/22 10:34:02;;;;;;;17.33;11.18;;;;;;;;;;5011738;28;20398;-57
2022/06/22 10:36:31;;;;;;;16.00;10.93;;;;;;;;;;5011789;28;20088;-54
2022/06/22 10:39:16;;;;;;;15.07;11.07;;;;;;;;;;5002970;28;20069;-57
2022/06/22 10:47:33;;;;;;;13.25;10.23;;;;;;;;;;5011595;28;20068;-54
2022/06/22 10:50:02;;;;;;;17.83;12.35;;;;;;;;;;5011602;28;20029;-56
2022/06/22 10:52:51;;;;;;;16.00;10.45;;;;;;;;;;5011538;28;20026;-56
2022/06/22 10:55:17;;;;;;;11.55;8.70;;;;;;;;;;5011653;28;20061;-55
2022/06/22 10:57:46;;;;;;;16.02;8.75;;;;;;;;;;5007966;28;20100;-57
2022/06/22 11:00:14;;;;;;;12.82;8.90;;;;;;;;;;5005562;28;20108;-56
2022/06/22 11:02:52;;;;;;;12.05;9.55;;;;;;;;;;5006646;28;20061;-55
2022/06/22 11:05:28;;;;;;;15.18;9.88;;;;;;;;;;5011714;28;20026;-57
2022/06/22 11:07:54;;;;;;;13.57;12.00;;;;;;;;;;5010502;28;20117;-53
2022/06/22 11:10:31;;;;;;;13.45;10.13;;;;;;;;;;4999711;28;20034;-54
2022/06/22 11:13:13;;;;;;;21.65;12.60;;;;;;;;;;5011432;28;20499;-57
2022/06/22 11:15:54;;;;;;;13.88;9.88;;;;;;;;;;5008315;28;20032;-57
2022/06/22 11:18:20;;;;;;;17.27;9.73;;;;;;;;;;5003276;28;20109;-57
2022/06/22 11:20:53;;;;;;;14.18;7.93;;;;;;;;;;5001217;28;20034;-57
2022/06/22 11:23:37;;;;;;;14.40;8.85;;;;;;;;;;4998896;28;20038;-55
2022/06/22 11:31:55;;;;;;;10.68;9.43;;;;;;;;;;5014731;28;20045;-54
2022/06/22 11:34:40;;;;;;;10.13;9.07;;;;;;;;;;5014360;28;20048;-54
2022/06/22 11:37:18;;;;;;;14.30;9.65;;;;;;;;;;5014707;28;20030;-55
2022/06/22 11:40:10;;;;;;;15.02;9.80;;;;;;;;;;5014613;28;20029;-55
2022/06/22 11:42:39;;;;;;;15.25;8.88;;;;;;;;;;5010304;28;20084;-53
2022/06/22 11:45:50;;;;;;;15.00;9.05;;;;;;;;;;5014235;28;20384;-57
2022/06/22 11:48:16;;;;;;;16.02;8.98;;;;;;;;;;4973020;28;20133;-57
2022/06/22 11:51:02;;;;;;;15.38;9.40;;;;;;;;;;5008531;28;20073;-55
2022/06/22 11:53:45;;;;;;;13.65;8.73;;;;;;;;;;5014015;28;20034;-56
2022/06/22 11:56:31;;;;;;;13.82;9.40;;;;;;;;;;5014433;28;20034;-55
2022/06/22 11:59:27;;;;;;;9.77;5.68;;;;;;;;;;5014163;28;20029;-53
2022/06/22 12:02:12;;;;;;;14.43;7.47;;;;;;;;;;4977446;28;20034;-57
2022/06/22 12:04:52;;;;;;;12.90;8.18;;;;;;;;;;5014075;28;20096;-56
2022/06/22 12:07:18;;;;;;;14.15;8.70;;;;;;;;;;5014180;28;20032;-56
2022/06/22 12:09:47;;;;;;;10.95;7.78;;;;;;;;;;5014099;28;20026;-57
2022/06/22 12:12:25;;;;;;;9.77;8.25;;;;;;;;;;5014101;28;20037;-57
2022/06/22 12:15:07;;;;;;;13.75;8.63;;;;;;;;;;5013878;28;20038;-58
2022/06/22 12:17:46;;;;;;;16.38;8.40;;;;;;;;;;5013942;28;20025;-59
2022/06/22 12:20:31;;;;;;;15.30;9.30;;;;;;;;;;5013850;28;20030;-58
2022/06/22 12:23:12;;;;;;;12.75;9.02;;;;;;;;;;5013514;28;20478;-57
2022/06/22 12:25:57;;;;;;;12.43;8.82;;;;;;;;;;5013880;28;20030;-57
2022/06/22 12:28:25;;;;;;;15.45;8.88;;;;;;;;;;5013720;28;20049;-57
2022/06/22 12:30:59;;;;;;;12.32;8.50;;;;;;;;;;5012709;28;20434;-58
2022/06/22 12:33:37;;;;;;;16.45;9.63;;;;;;;;;;5013369;28;20095;-58
2022/06/22 12:36:07;;;;;;;13.40;8.73;;;;;;;;;;5013451;28;20029;-57
2022/06/22 12:38:43;;;;;;;12.05;8.85;;;;;;;;;;5013207;28;20025;-58
2022/06/22 12:41:23;;;;;;;13.13;7.20;;;;;;;;;;5013332;28;20029;-57
2022/06/22 12:44:08;;;;;;;20.30;7.90;;;;;;;;;;5013370;28;20105;-58
2022/06/22 12:46:46;;;;;;;15.55;6.97;;;;;;;;;;5012952;28;20038;-58
2022/06/22 12:49:25;;;;;;;15.88;7.90;;;;;;;;;;5013198;28;20028;-59
2022/06/22 12:51:57;;;;;;;11.35;6.97;;;;;;;;;;5012604;28;20034;-58
2022/06/22 12:54:26;;;;;;;10.07;6.55;;;;;;;;;;5008770;28;20034;-58
2022/06/22 12:56:56;;;;;;;18.25;7.70;;;;;;;;;;5013077;28;20112;-53
2022/06/22 12:59:35;;;;;;;11.75;7.15;;;;;;;;;;5011708;28;20029;-57
2022/06/22 13:02:13;;;;;;;11.95;7.18;;;;;;;;;;5000057;28;20045;-57
2022/06/22 13:04:39;;;;;;;9.50;7.03;;;;;;;;;;5007270;28;20022;-57
2022/06/22 13:07:07;;;;;;;20.70;14.30;;;;;;;;;;5012579;28;20021;-58
2022/06/22 13:09:34;;;;;;;12.25;10.95;;;;;;;;;;5010238;28;20022;-58
2022/06/22 13:12:00;;;;;;;;;;;;;;;;;;5010331;28;20030;-55
2022/06/22 13:14:46;;;;;;;12.63;7.45;;;;;;;;;;5011948;28;19914;-54
2022/06/22 13:17:21;;;;;;;8.98;6.78;;;;;;;;;;5012607;28;20553;-56
2022/06/22 13:19:54;;;;;;;13.98;7.53;;;;;;;;;;5012038;28;20120;-54
2022/06/22 13:22:32;;;;;;;11.25;6.97;;;;;;;;;;5011899;28;20423;-56
2022/06/22 13:25:06;;;;;;;11.88;7.03;;;;;;;;;;5012211;28;20399;-55
2022/06/22 13:27:32;;;;;;;11.23;7.18;;;;;;;;;;5011982;28;20106;-57
2022/06/22 13:30:15;;;;;;;10.05;6.75;;;;;;;;;;5012091;28;20021;-54
2022/06/22 13:32:43;;;;;;;10.02;6.82;;;;;;;;;;5012678;28;20034;-57
2022/06/22 13:35:16;;;;;;;13.15;6.78;;;;;;;;;;5011792;28;20080;-53
2022/06/22 13:37:54;;;;;;;12.73;7.03;;;;;;;;;;5010101;28;20057;-56
2022/06/22 13:40:30;;;;;;;17.15;7.70;;;;;;;;;;5012152;28;20034;-58
2022/06/22 13:43:02;;;;;;;11.95;6.80;;;;;;;;;;5011628;28;20502;-55
2022/06/22 13:45:47;;;;;;;12.15;6.97;;;;;;;;;;5012015;28;20080;-56
2022/06/22 13:48:26;;;;;;;11.18;7.53;;;;;;;;;;5011786;28;20026;-55
2022/06/22 13:53:54;;;;;;;11.95;6.63;;;;;;;;;;5011444;28;20037;-51
2022/06/22 13:56:26;;;;;;;9.90;7.40;;;;;;;;;;5001744;28;20421;-51
2022/06/22 13:58:53;;;;;;;9.50;7.00;;;;;;;;;;5011692;28;20079;-52
2022/06/22 14:01:26;;;;;;;10.57;6.97;;;;;;;;;;5011320;28;20034;-55
2022/06/22 14:03:52;;;;;;;12.32;7.18;;;;;;;;;;5011365;28;20109;-50
2022/06/22 14:06:31;;;;;;;15.48;7.30;;;;;;;;;;5008307;28;20034;-51
2022/06/22 14:09:10;;;;;;;10.98;6.95;;;;;;;;;;5009550;28;20108;-50
2022/06/22 14:11:39;;;;;;;13.93;8.30;;;;;;;;;;5007793;28;20042;-51
2022/06/22 14:14:27;;;;;;;12.68;8.05;;;;;;;;;;5008690;28;20054;-52
2022/06/22 14:16:53;;;;;;;;;;;;;;;;;;4994856;28;20032;-53
2022/06/22 14:19:41;;;;;;;10.73;9.18;;;;;;;;;;4991600;28;19959;-52
2022/06/22 14:22:07;;;;;;;;;;;;;;;;;;5009481;28;20032;-55
2022/06/22 14:24:38;;;;;;;19.27;9.80;;;;;;;;;;5010604;28;19916;-53
2022/06/22 14:27:04;;;;;;;13.68;8.27;;;;;;;;;;5009881;28;20032;-52
2022/06/22 14:29:37;;;;;;;11.18;8.15;;;;;;;;;;5009019;28;20029;-52
2022/06/22 14:32:23;;;;;;;12.27;7.60;;;;;;;;;;5002817;28;20375;-54
2022/06/22 14:34:53;;;;;;;13.98;9.75;;;;;;;;;;5009684;28;20034;-53
2022/06/22 14:37:39;;;;;;;15.82;8.52;;;;;;;;;;5011463;28;20029;-51
2022/06/22 14:40:05;;;;;;;19.55;9.25;;;;;;;;;;5010763;28;20030;-52
2022/06/22 14:42:34;;;;;;;13.00;7.78;;;;;;;;;;5011106;28;20041;-54
2022/06/22 14:45:16;;;;;;;13.23;8.20;;;;;;;;;;5011300;28;20074;-52
2022/06/22 14:47:49;;;;;;;12.60;9.43;;;;;;;;;;5008040;28;20401;-55
2022/06/22 14:50:15;;;;;;;13.45;7.88;;;;;;;;;;5009598;28;20376;-53
2022/06/22 14:52:50;;;;;;;22.55;11.57;;;;;;;;;;5010455;28;20543;-52
2022/06/22 14:55:34;;;;;;;13.38;8.07;;;;;;;;;;5010425;28;20029;-51
2022/06/22 14:58:00;;;;;;;27.00;12.65;;;;;;;;;;5010883;28;20018;-56
2022/06/22 15:00:32;;;;;;;16.98;9.05;;;;;;;;;;4997100;28;20053;-53
2022/06/22 15:03:14;;;;;;;19.30;8.32;;;;;;;;;;5011901;28;20041;-55
2022/06/22 15:05:58;;;;;;;13.45;7.50;;;;;;;;;;5013460;28;20068;-56
2022/06/22 15:08:32;;;;;;;13.50;8.48;;;;;;;;;;5013532;28;20041;-55
2022/06/22 15:12:56;;;;;;;20.65;13.38;;;;;;;;;;5013814;28;20049;-52
2022/06/22 15:13:49;;;;;;;11.13;8.73;;;;;;;;;;5003565;28;20037;-55
2022/06/22 15:16:18;;;;;;;10.25;7.97;;;;;;;;;;5014938;28;20033;-52
2022/06/22 15:18:47;;;;;;;12.25;8.10;;;;;;;;;;5014034;28;20026;-55
2022/06/22 15:21:22;;;;;;;13.32;9.00;;;;;;;;;;5013963;28;20040;-52
2022/06/22 15:24:00;;;;;;;14.38;8.93;;;;;;;;;;5014255;28;20054;-56
2022/06/22 15:26:34;;;;;;;11.55;8.32;;;;;;;;;;5013057;28;20034;-55